Time;durP1;ratioP1;P1;durP2;ratioP2;P2;SDS_P1;SDS_P2;PMS_P1;PMS_P2;Temp;Humidity;BMP_temperature;BMP_pressure;BME280_temperature;BME280_humidity;BME280_pressure;Samples;Min_cycle;Max_cycle;Signal;HPM_P1;HPM_P2
2024/02/01 00:00:20;;;;;;;2.13;1.67;;;17.50;54.00;;;;;;5051496;28;20182;-66
2024/02/01 00:02:46;;;;;;;2.05;1.60;;;17.40;54.00;;;;;;5051635;28;20610;-67
2024/02/01 00:05:11;;;;;;;2.00;1.50;;;17.40;54.00;;;;;;5051229;28;20164;-66
2024/02/01 00:07:37;;;;;;;2.10;1.75;;;17.40;54.00;;;;;;5051531;28;20380;-66
2024/02/01 00:10:02;;;;;;;2.90;1.73;;;17.40;54.00;;;;;;5052271;28;20167;-67
2024/02/01 00:12:28;;;;;;;1.60;1.50;;;17.30;54.10;;;;;;5050751;28;20182;-66
2024/02/01 00:14:53;;;;;;;3.30;1.70;;;17.30;54.00;;;;;;5051706;28;20673;-67
2024/02/01 00:17:19;;;;;;;2.03;1.75;;;17.30;54.10;;;;;;5050865;28;20661;-66
2024/02/01 00:19:44;;;;;;;4.25;1.70;;;17.30;54.10;;;;;;5051798;28;20676;-67
2024/02/01 00:22:10;;;;;;;2.75;1.42;;;17.30;54.20;;;;;;5051762;28;20549;-66
2024/02/01 00:24:35;;;;;;;2.38;1.60;;;17.30;54.20;;;;;;5050526;28;20562;-66
2024/02/01 00:27:01;;;;;;;3.55;1.63;;;17.20;54.10;;;;;;5051553;28;20182;-65
2024/02/01 00:29:26;;;;;;;2.30;1.80;;;17.20;54.20;;;;;;5054472;28;20191;-66
2024/02/01 00:31:52;;;;;;;2.28;1.83;;;17.20;54.20;;;;;;5054760;28;20182;-67
2024/02/01 00:34:17;;;;;;;3.38;1.98;;;17.20;54.20;;;;;;5055357;28;20175;-68
2024/02/01 00:36:43;;;;;;;2.80;1.70;;;17.20;54.20;;;;;;5055524;28;20175;-67
2024/02/01 00:39:08;;;;;;;1.50;1.30;;;17.20;54.20;;;;;;5054754;28;20603;-66
2024/02/01 00:41:34;;;;;;;3.20;1.80;;;17.10;54.20;;;;;;5054927;28;20175;-67
2024/02/01 00:43:59;;;;;;;2.55;1.55;;;17.20;54.30;;;;;;5055203;28;20209;-67
2024/02/01 00:46:25;;;;;;;2.03;1.70;;;17.10;54.30;;;;;;5054492;28;20186;-67
2024/02/01 00:48:50;;;;;;;2.08;1.60;;;17.10;54.30;;;;;;5055331;28;20218;-67
2024/02/01 00:51:16;;;;;;;2.58;1.58;;;17.10;54.30;;;;;;5054912;28;20178;-67
2024/02/01 00:53:42;;;;;;;1.75;1.50;;;17.10;54.30;;;;;;5054497;28;20194;-67
2024/02/01 00:56:07;;;;;;;2.22;1.70;;;17.10;54.30;;;;;;5054850;28;20238;-66
2024/02/01 00:58:33;;;;;;;2.85;1.55;;;17.10;54.30;;;;;;5054662;28;20278;-66
2024/02/01 01:00:58;;;;;;;1.77;1.60;;;17.00;54.30;;;;;;5054490;28;20271;-66
2024/02/01 01:03:24;;;;;;;2.30;1.60;;;17.00;54.40;;;;;;5054715;28;20266;-66
2024/02/01 01:05:49;;;;;;;1.70;1.60;;;17.00;54.40;;;;;;5054937;28;20622;-66
2024/02/01 01:08:16;;;;;;;2.65;1.90;;;17.00;54.40;;;;;;5054087;28;20726;-66
2024/02/01 01:10:42;;;;;;;3.63;1.42;;;17.00;54.50;;;;;;5054686;28;20174;-66
2024/02/01 01:13:07;;;;;;;3.72;1.60;;;17.00;54.50;;;;;;5054734;28;20181;-67
2024/02/01 01:15:33;;;;;;;2.00;1.60;;;17.00;54.50;;;;;;5053660;28;20207;-66
2024/02/01 01:17:58;;;;;;;1.88;1.63;;;17.00;54.50;;;;;;5054847;28;20187;-67
2024/02/01 01:20:24;;;;;;;2.40;1.58;;;17.00;54.50;;;;;;5054089;28;20612;-66
2024/02/01 01:22:49;;;;;;;1.85;1.60;;;16.90;54.50;;;;;;5054381;28;20193;-65
2024/02/01 01:25:15;;;;;;;2.60;1.80;;;16.90;54.40;;;;;;5054588;28;20675;-65
2024/02/01 01:27:41;;;;;;;2.03;1.70;;;17.00;54.50;;;;;;5053589;28;20766;-64
2024/02/01 01:30:07;;;;;;;1.90;1.48;;;16.90;54.50;;;;;;5054424;28;20179;-66
2024/02/01 01:32:35;;;;;;;3.38;1.80;;;16.90;54.50;;;;;;5054200;28;20185;-67
2024/02/01 01:35:02;;;;;;;2.60;1.60;;;16.90;54.50;;;;;;5053775;28;20202;-67
2024/02/01 01:37:28;;;;;;;1.65;1.55;;;16.90;54.60;;;;;;5053903;28;20171;-67
2024/02/01 01:39:53;;;;;;;2.25;1.75;;;16.90;54.50;;;;;;5053795;28;20580;-66
2024/02/01 01:42:19;;;;;;;3.15;1.63;;;16.90;54.60;;;;;;5053109;28;20164;-66
2024/02/01 01:44:44;;;;;;;1.75;1.50;;;16.90;54.60;;;;;;5054338;28;20175;-66
2024/02/01 01:47:10;;;;;;;1.50;1.40;;;16.90;54.60;;;;;;5053967;28;20521;-66
2024/02/01 01:49:35;;;;;;;1.90;1.67;;;16.90;54.60;;;;;;5053204;28;20179;-67
2024/02/01 01:52:01;;;;;;;1.52;1.42;;;16.90;54.60;;;;;;5053945;28;20614;-66
2024/02/01 01:54:26;;;;;;;2.00;1.80;;;16.90;54.60;;;;;;5052493;28;20175;-67
2024/02/01 01:56:52;;;;;;;2.15;1.85;;;16.90;54.70;;;;;;5051779;28;20677;-66
2024/02/01 01:59:17;;;;;;;1.70;1.60;;;16.80;54.60;;;;;;5054165;28;20633;-66
2024/02/01 02:01:45;;;;;;;2.42;1.63;;;16.80;54.70;;;;;;5052756;28;20171;-66
2024/02/01 02:04:10;;;;;;;2.30;1.38;;;16.80;54.70;;;;;;5052984;28;20182;-65
2024/02/01 02:06:36;;;;;;;2.03;1.40;;;16.90;54.70;;;;;;5035745;28;20171;-66
2024/02/01 02:09:02;;;;;;;1.50;1.40;;;16.80;54.70;;;;;;5053669;28;20206;-66
2024/02/01 02:11:27;;;;;;;1.88;1.55;;;16.80;54.70;;;;;;5052665;28;20167;-66
2024/02/01 02:13:55;;;;;;;1.77;1.50;;;16.80;54.70;;;;;;5053900;28;20175;-66
2024/02/01 02:16:22;;;;;;;1.73;1.60;;;16.80;54.70;;;;;;5053366;28;20209;-66
2024/02/01 02:18:50;;;;;;;1.83;1.50;;;16.80;54.70;;;;;;5053056;28;20179;-67
2024/02/01 02:21:18;;;;;;;1.90;1.65;;;16.80;54.70;;;;;;5053311;28;20167;-66
2024/02/01 02:23:49;;;;;;;1.65;1.48;;;16.80;54.70;;;;;;5052727;28;20661;-66
2024/02/01 02:26:15;;;;;;;1.77;1.50;;;16.80;54.70;;;;;;5053348;28;20581;-65
2024/02/01 02:28:41;;;;;;;2.08;1.63;;;16.80;54.80;;;;;;5053231;28;20273;-65
2024/02/01 02:31:06;;;;;;;2.05;1.48;;;16.80;54.80;;;;;;5052695;28;20175;-66
2024/02/01 02:33:32;;;;;;;1.60;1.50;;;16.80;54.80;;;;;;5053064;28;20217;-67
2024/02/01 02:35:57;;;;;;;1.75;1.50;;;16.80;54.80;;;;;;5052998;28;20271;-67
2024/02/01 02:38:23;;;;;;;2.35;1.73;;;16.80;54.80;;;;;;5052091;28;20179;-67
2024/02/01 02:40:48;;;;;;;1.67;1.40;;;16.80;54.90;;;;;;5052884;28;20175;-66
2024/02/01 02:43:14;;;;;;;1.50;1.40;;;16.70;54.80;;;;;;5052976;28;20190;-67
2024/02/01 02:45:40;;;;;;;3.28;1.45;;;16.70;54.80;;;;;;5052167;28;20258;-66
2024/02/01 02:48:06;;;;;;;1.65;1.55;;;16.70;54.80;;;;;;5052918;28;20570;-67
2024/02/01 02:50:32;;;;;;;1.30;1.20;;;16.70;54.80;;;;;;5051867;28;20175;-66
2024/02/01 02:52:57;;;;;;;1.52;1.27;;;16.70;54.90;;;;;;5052055;28;20175;-67
2024/02/01 02:55:23;;;;;;;3.15;1.40;;;16.70;54.90;;;;;;5052259;28;20230;-67
2024/02/01 02:57:48;;;;;;;1.75;1.45;;;16.70;54.90;;;;;;5052770;28;20186;-66
2024/02/01 03:00:18;;;;;;;3.00;1.60;;;16.70;54.90;;;;;;5052128;28;20171;-66
2024/02/01 03:02:48;;;;;;;2.40;1.60;;;16.70;54.90;;;;;;5053090;28;20175;-66
2024/02/01 03:05:16;;;;;;;1.35;1.25;;;16.70;54.90;;;;;;5052703;28;20182;-66
2024/02/01 03:07:43;;;;;;;1.65;1.35;;;16.70;55.00;;;;;;5051691;28;20214;-66
2024/02/01 03:10:09;;;;;;;1.90;1.60;;;16.70;55.00;;;;;;5052840;28;20201;-66
2024/02/01 03:12:34;;;;;;;1.50;1.40;;;16.70;55.00;;;;;;5052341;28;20645;-67
2024/02/01 03:15:00;;;;;;;2.13;1.30;;;16.70;55.00;;;;;;5052265;28;20174;-67
2024/02/01 03:17:25;;;;;;;2.20;1.50;;;16.70;55.00;;;;;;5052231;28;20548;-66
2024/02/01 03:19:51;;;;;;;1.85;1.60;;;16.70;55.00;;;;;;5052337;28;20713;-66
2024/02/01 03:22:19;;;;;;;1.27;1.15;;;16.60;55.00;;;;;;5051519;28;20345;-66
2024/02/01 03:24:58;;;;;;;1.23;1.13;;;16.70;55.10;;;;;;5052538;28;20176;-66
2024/02/01 03:27:24;;;;;;;2.92;1.45;;;16.60;55.10;;;;;;5051342;28;20186;-65
2024/02/01 03:29:50;;;;;;;1.33;1.23;;;16.60;55.00;;;;;;5052436;28;20537;-65
2024/02/01 03:32:16;;;;;;;1.73;1.40;;;16.60;55.00;;;;;;5052013;28;20179;-66
2024/02/01 03:34:42;;;;;;;1.73;1.48;;;16.60;55.00;;;;;;5051364;28;20175;-67
2024/02/01 03:37:08;;;;;;;1.40;1.30;;;16.60;55.00;;;;;;5052084;28;20171;-66
2024/02/01 03:39:33;;;;;;;2.78;1.40;;;16.60;55.10;;;;;;5051984;28;20203;-67
2024/02/01 03:41:59;;;;;;;2.05;1.65;;;16.60;55.10;;;;;;5051568;28;20241;-66
2024/02/01 03:44:25;;;;;;;2.33;1.30;;;16.60;55.10;;;;;;5051790;28;20221;-67
2024/02/01 03:46:57;;;;;;;1.85;1.38;;;16.60;55.10;;;;;;5052064;28;20179;-66
2024/02/01 03:49:24;;;;;;;1.92;1.30;;;16.60;55.10;;;;;;5050929;28;20218;-67
2024/02/01 03:51:50;;;;;;;3.80;1.60;;;16.60;55.20;;;;;;5052298;28;20179;-66
2024/02/01 03:54:15;;;;;;;1.92;1.48;;;16.60;55.10;;;;;;5051889;28;20980;-67
2024/02/01 03:56:41;;;;;;;2.08;1.20;;;16.50;55.10;;;;;;5051074;28;20360;-66
2024/02/01 03:59:11;;;;;;;1.95;1.55;;;16.60;55.10;;;;;;5052000;28;20638;-66
2024/02/01 04:01:37;;;;;;;2.42;1.50;;;16.60;55.20;;;;;;5052080;28;20183;-66
2024/02/01 04:04:05;;;;;;;1.95;1.15;;;16.50;55.10;;;;;;5055452;28;20178;-66
2024/02/01 04:06:34;;;;;;;2.05;1.38;;;16.60;55.20;;;;;;5056017;28;20179;-66
2024/02/01 04:09:00;;;;;;;1.80;1.50;;;16.60;55.20;;;;;;5055910;28;20673;-67
2024/02/01 04:11:29;;;;;;;2.67;1.45;;;16.50;55.20;;;;;;5054887;28;20186;-66
2024/02/01 04:13:55;;;;;;;2.38;1.27;;;16.50;55.20;;;;;;5055875;28;20178;-67
2024/02/01 04:16:21;;;;;;;1.60;1.20;;;16.50;55.20;;;;;;5055021;28;20536;-66
2024/02/01 04:18:46;;;;;;;2.08;1.17;;;16.50;55.20;;;;;;5055830;28;20656;-66
2024/02/01 04:21:12;;;;;;;1.63;1.17;;;16.50;55.20;;;;;;5055607;28;20258;-66
2024/02/01 04:23:38;;;;;;;2.85;1.40;;;16.50;55.20;;;;;;5053700;28;20301;-65
2024/02/01 04:26:04;;;;;;;1.27;1.10;;;16.50;55.80;;;;;;5055732;28;20194;-65
2024/02/01 04:28:30;;;;;;;2.10;1.30;;;16.50;55.20;;;;;;5055165;28;20218;-66
2024/02/01 04:30:55;;;;;;;2.67;1.40;;;16.50;55.20;;;;;;5054847;28;20178;-66
2024/02/01 04:33:21;;;;;;;2.58;1.65;;;16.50;55.20;;;;;;5055097;28;20197;-66
2024/02/01 04:35:46;;;;;;;1.95;1.20;;;16.50;55.30;;;;;;5055403;28;20179;-67
2024/02/01 04:38:12;;;;;;;1.67;1.45;;;16.50;55.20;;;;;;5054817;28;20170;-66
2024/02/01 04:40:38;;;;;;;2.78;1.27;;;16.40;55.20;;;;;;5055175;28;20186;-66
2024/02/01 04:43:04;;;;;;;2.70;1.30;;;16.40;55.20;;;;;;5055341;28;20568;-66
2024/02/01 04:45:30;;;;;;;1.85;1.05;;;16.40;55.20;;;;;;5054181;28;20171;-66
2024/02/01 04:47:56;;;;;;;1.20;1.10;;;16.40;55.20;;;;;;5055112;28;20425;-66
2024/02/01 04:50:22;;;;;;;2.35;1.23;;;16.40;55.20;;;;;;5055157;28;20171;-66
2024/02/01 04:52:48;;;;;;;3.50;1.30;;;16.40;55.30;;;;;;5054690;28;20630;-66
2024/02/01 04:55:13;;;;;;;2.85;1.38;;;16.40;55.20;;;;;;5055102;28;20186;-66
2024/02/01 04:57:39;;;;;;;2.50;1.38;;;16.40;55.20;;;;;;5055103;28;20185;-67
2024/02/01 05:00:13;;;;;;;2.70;1.42;;;16.40;55.30;;;;;;5054488;28;20179;-65
2024/02/01 05:02:40;;;;;;;4.63;1.33;;;16.40;55.30;;;;;;5054898;28;20191;-66
2024/02/01 05:05:06;;;;;;;2.60;1.10;;;16.40;55.30;;;;;;5054963;28;20634;-65
2024/02/01 05:07:32;;;;;;;1.40;1.10;;;16.40;55.30;;;;;;5054019;28;20210;-66
2024/02/01 05:09:57;;;;;;;2.78;1.48;;;16.30;55.20;;;;;;5054978;28;20214;-66
2024/02/01 05:12:23;;;;;;;2.55;1.30;;;16.30;55.30;;;;;;5054515;28;20171;-66
2024/02/01 05:14:49;;;;;;;4.85;2.13;;;16.40;55.30;;;;;;5053097;28;20829;-67
2024/02/01 05:17:14;;;;;;;4.22;1.77;;;16.40;55.20;;;;;;5054672;28;20657;-66
2024/02/01 05:19:40;;;;;;;2.65;1.20;;;16.30;55.20;;;;;;5053839;28;20185;-67
2024/02/01 05:22:07;;;;;;;2.90;1.40;;;16.30;55.20;;;;;;5054680;28;20624;-66
2024/02/01 05:24:33;;;;;;;2.40;1.27;;;16.30;55.20;;;;;;5054284;28;20257;-66
2024/02/01 05:26:58;;;;;;;3.10;1.63;;;16.30;55.30;;;;;;5053882;28;20249;-66
2024/02/01 05:29:24;;;;;;;2.78;1.58;;;16.30;55.80;;;;;;5053991;28;20302;-65
2024/02/01 05:31:53;;;;;;;3.28;1.40;;;16.30;55.20;;;;;;5054592;28;20206;-66
2024/02/01 05:34:19;;;;;;;5.68;1.77;;;16.30;55.20;;;;;;5053626;28;20176;-67
2024/02/01 05:36:49;;;;;;;2.53;1.50;;;16.30;55.20;;;;;;5054479;28;20198;-67
2024/02/01 05:39:30;;;;;;;4.15;1.60;;;16.30;55.30;;;;;;5054258;28;20705;-67
2024/02/01 05:41:57;;;;;;;3.10;1.45;;;16.30;55.20;;;;;;5053571;28;20626;-66
2024/02/01 05:44:23;;;;;;;2.03;1.25;;;16.20;55.20;;;;;;5053919;28;20257;-66
2024/02/01 05:46:55;;;;;;;2.35;1.30;;;16.20;55.20;;;;;;5054344;28;20186;-67
2024/02/01 05:49:30;;;;;;;3.13;1.50;;;16.20;55.20;;;;;;5053063;28;20581;-66
2024/02/01 05:52:00;;;;;;;3.80;1.55;;;16.20;55.20;;;;;;5053984;28;20613;-66
2024/02/01 05:54:26;;;;;;;3.03;1.48;;;16.20;55.20;;;;;;5053693;28;20266;-67
2024/02/01 05:56:51;;;;;;;3.45;1.70;;;16.20;55.20;;;;;;5053137;28;20305;-66
2024/02/01 05:59:17;;;;;;;2.75;1.73;;;16.20;55.20;;;;;;5053788;28;20181;-66
2024/02/01 06:01:43;;;;;;;2.25;1.50;;;16.20;55.20;;;;;;5053808;28;20634;-65
2024/02/01 06:04:10;;;;;;;3.38;1.25;;;16.20;55.20;;;;;;5053433;28;20193;-66
2024/02/01 06:06:37;;;;;;;3.60;1.50;;;16.20;55.10;;;;;;5053444;28;20787;-66
2024/02/01 06:09:04;;;;;;;3.53;2.00;;;16.10;55.10;;;;;;5052854;28;20640;-66
2024/02/01 06:11:29;;;;;;;4.70;1.90;;;16.20;55.20;;;;;;5053648;28;20236;-66
2024/02/01 06:13:55;;;;;;;3.00;1.60;;;16.10;55.10;;;;;;5053827;28;20186;-66
2024/02/01 06:16:20;;;;;;;3.15;1.45;;;16.10;55.10;;;;;;5052783;28;20179;-66
2024/02/01 06:18:46;;;;;;;2.45;1.42;;;16.10;55.10;;;;;;5053449;28;20642;-66
2024/02/01 06:21:16;;;;;;;2.75;1.30;;;16.10;55.10;;;;;;5053492;28;20172;-66
2024/02/01 06:23:44;;;;;;;3.83;1.85;;;16.10;55.10;;;;;;5052652;28;20269;-66
2024/02/01 06:26:18;;;;;;;2.25;1.40;;;16.10;55.10;;;;;;5053543;28;20309;-64
2024/02/01 06:28:43;;;;;;;3.13;1.20;;;16.10;55.10;;;;;;5053501;28;20298;-65
2024/02/01 06:31:13;;;;;;;5.68;1.85;;;16.10;55.10;;;;;;5052621;28;20694;-67
2024/02/01 06:33:39;;;;;;;3.08;1.55;;;16.10;55.10;;;;;;5051805;28;20225;-67
2024/02/01 06:36:07;;;;;;;3.25;1.48;;;16.00;55.00;;;;;;5053146;28;20258;-68
2024/02/01 06:44:21;;;;;;;3.70;1.70;;;16.00;55.00;;;;;;5052326;28;20198;-67
2024/02/01 06:49:39;;;;;;;3.83;1.90;;;16.00;55.00;;;;;;5052898;28;20245;-67
2024/02/01 06:54:53;;;;;;;3.05;1.50;;;16.10;55.00;;;;;;5052852;28;20527;-68
2024/02/01 06:57:22;;;;;;;3.90;1.65;;;16.10;55.00;;;;;;5052304;28;20637;-67
2024/02/01 07:02:51;;;;;;;3.08;1.50;;;16.10;54.80;;;;;;5052520;28;20174;-66
2024/02/01 07:05:58;;;;;;;5.90;2.13;;;16.10;54.80;;;;;;5051734;28;20194;-67
2024/02/01 07:08:13;;;;;;;2.78;1.40;;;16.10;54.80;;;;;;5052444;28;20299;-67
2024/02/01 07:10:58;;;;;;;3.25;1.52;;;16.10;54.80;;;;;;5052477;28;20183;-67
2024/02/01 07:16:21;;;;;;;2.75;1.45;;;16.10;54.80;;;;;;5052556;28;20165;-67
2024/02/01 07:57:36;;;;;;;3.78;1.58;;;16.10;54.60;;;;;;5051451;28;20232;-66
2024/02/01 08:00:06;;;;;;;3.60;1.40;;;16.10;54.50;;;;;;5052102;28;20898;-67
2024/02/01 08:02:50;;;;;;;3.22;1.80;;;16.20;54.50;;;;;;5050806;28;20725;-67
2024/02/01 08:08:04;;;;;;;5.20;1.58;;;16.10;54.50;;;;;;5051663;28;20226;-68
2024/02/01 08:10:29;;;;;;;4.00;1.50;;;16.20;54.50;;;;;;5050795;28;20665;-68
2024/02/01 08:13:12;;;;;;;3.72;1.50;;;16.20;54.50;;;;;;5051945;28;20258;-69
2024/02/01 08:15:42;;;;;;;4.03;1.40;;;16.20;54.60;;;;;;5050728;28;20179;-67
2024/02/01 08:18:09;;;;;;;5.22;1.65;;;16.30;54.60;;;;;;5051638;28;20171;-68
2024/02/01 08:20:35;;;;;;;4.20;1.40;;;16.30;54.60;;;;;;5051368;28;20706;-69
2024/02/01 08:23:01;;;;;;;3.70;1.63;;;16.40;54.50;;;;;;5051157;28;20178;-69
2024/02/01 08:25:27;;;;;;;3.60;1.60;;;16.40;54.40;;;;;;5051494;28;20228;-67
2024/02/01 08:27:55;;;;;;;3.28;1.33;;;16.50;54.50;;;;;;5051581;28;20195;-66
2024/02/01 08:30:21;;;;;;;3.53;1.70;;;16.50;54.50;;;;;;5050622;28;20224;-66
2024/02/01 08:32:48;;;;;;;5.78;1.73;;;16.60;54.50;;;;;;5051526;28;20178;-67
2024/02/01 08:35:14;;;;;;;3.97;1.77;;;16.60;54.50;;;;;;5051823;28;20175;-68
2024/02/01 08:37:40;;;;;;;3.97;1.55;;;16.60;54.50;;;;;;5050761;28;20179;-68
2024/02/01 08:40:20;;;;;;;2.78;1.52;;;16.60;54.50;;;;;;5051658;28;20206;-68
2024/02/01 08:42:50;;;;;;;5.18;1.63;;;16.60;54.50;;;;;;5051664;28;20252;-68
2024/02/01 08:45:17;;;;;;;4.32;1.38;;;16.70;54.60;;;;;;5050556;28;20630;-68
2024/02/01 08:47:45;;;;;;;3.40;1.70;;;16.60;54.60;;;;;;5051314;28;20249;-67
2024/02/01 08:50:11;;;;;;;4.85;1.73;;;16.70;54.60;;;;;;5054403;28;20183;-67
2024/02/01 08:52:46;;;;;;;3.83;1.88;;;16.60;54.60;;;;;;5054226;28;20201;-68
2024/02/01 08:55:14;;;;;;;2.15;1.45;;;16.60;55.10;;;;;;5055066;28;20210;-67
2024/02/01 08:57:41;;;;;;;2.10;1.75;;;16.60;54.60;;;;;;5054142;28;20179;-69
2024/02/01 09:00:21;;;;;;;3.45;1.70;;;16.70;54.70;;;;;;5055054;28;20194;-69
2024/02/01 09:05:35;;;;;;;4.78;1.75;;;16.80;54.60;;;;;;5051890;28;20193;-69
2024/02/01 09:08:06;;;;;;;3.83;1.98;;;16.80;54.40;;;;;;5054036;28;20214;-70
2024/02/01 09:10:32;;;;;;;3.60;1.65;;;16.90;54.50;;;;;;5053476;28;20715;-69
2024/02/01 09:12:57;;;;;;;3.38;1.73;;;16.90;54.40;;;;;;5052735;28;20179;-69
2024/02/01 09:15:23;;;;;;;4.95;2.22;;;17.00;54.50;;;;;;5053731;28;20175;-68
2024/02/01 09:17:49;;;;;;;3.80;1.77;;;17.00;54.40;;;;;;5054585;28;20313;-69
2024/02/01 09:20:18;;;;;;;3.50;1.50;;;17.00;54.30;;;;;;5054002;28;20368;-68
2024/02/01 09:22:45;;;;;;;3.30;1.33;;;17.00;54.40;;;;;;5054508;28;20665;-68
2024/02/01 09:25:10;;;;;;;4.40;1.95;;;17.00;54.30;;;;;;5054741;28;20187;-67
2024/02/01 09:27:38;;;;;;;3.92;1.75;;;17.00;54.30;;;;;;5053600;28;20183;-67
2024/02/01 09:30:06;;;;;;;4.82;2.22;;;17.00;54.30;;;;;;5054615;28;20178;-68
2024/02/01 09:32:31;;;;;;;4.25;1.85;;;17.00;54.30;;;;;;5054225;28;20189;-68
2024/02/01 09:34:57;;;;;;;5.00;1.98;;;17.00;54.30;;;;;;5053763;28;20180;-68
2024/02/01 09:37:22;;;;;;;3.90;1.70;;;17.00;54.30;;;;;;5053708;28;20175;-69
2024/02/01 09:39:48;;;;;;;5.95;1.85;;;17.10;54.30;;;;;;5053933;28;20653;-68
2024/02/01 09:42:18;;;;;;;5.68;1.75;;;17.10;54.30;;;;;;5054447;28;20191;-69
2024/02/01 09:44:43;;;;;;;3.28;1.92;;;17.10;54.20;;;;;;5054436;28;20176;-69
2024/02/01 09:47:09;;;;;;;4.30;2.15;;;17.10;54.30;;;;;;5053497;28;20189;-69
2024/02/01 09:49:34;;;;;;;3.60;1.83;;;17.10;54.20;;;;;;5052451;28;20218;-68
2024/02/01 09:52:00;;;;;;;3.92;1.92;;;17.10;54.20;;;;;;5052810;28;20175;-68
2024/02/01 09:54:26;;;;;;;4.20;1.83;;;17.10;54.20;;;;;;5052066;28;20183;-68
2024/02/01 09:56:52;;;;;;;4.60;1.95;;;17.10;54.80;;;;;;5052615;28;20231;-69
2024/02/01 09:59:17;;;;;;;4.68;1.70;;;17.10;54.20;;;;;;5052403;28;20171;-68
2024/02/01 10:01:43;;;;;;;4.03;2.08;;;17.10;54.30;;;;;;5051753;28;20199;-68
2024/02/01 10:04:12;;;;;;;4.95;1.77;;;17.10;54.40;;;;;;5052687;28;20233;-68
2024/02/01 10:06:38;;;;;;;3.88;2.00;;;17.10;54.50;;;;;;5053423;28;20191;-68
2024/02/01 10:09:20;;;;;;;4.30;1.80;;;17.10;54.60;;;;;;5052903;28;20215;-69
2024/02/01 10:11:47;;;;;;;4.40;1.80;;;17.10;54.60;;;;;;5053813;28;20187;-68
2024/02/01 10:14:14;;;;;;;3.90;1.80;;;17.00;54.60;;;;;;5053742;28;20266;-68
2024/02/01 10:16:39;;;;;;;4.63;2.10;;;17.00;54.60;;;;;;5052634;28;20201;-68
2024/02/01 10:19:08;;;;;;;4.28;1.90;;;17.00;54.70;;;;;;5053657;28;20225;-69
2024/02/01 10:21:35;;;;;;;5.35;1.80;;;17.00;54.70;;;;;;5053194;28;20638;-69
2024/02/01 10:24:04;;;;;;;5.57;1.38;;;17.00;54.80;;;;;;5052929;28;20206;-68
2024/02/01 10:26:30;;;;;;;6.05;2.25;;;16.90;54.90;;;;;;5053354;28;20250;-68
2024/02/01 10:28:56;;;;;;;5.07;2.05;;;16.90;55.00;;;;;;5053379;28;20295;-68
2024/02/01 10:31:22;;;;;;;4.57;2.00;;;16.90;55.10;;;;;;5052277;28;20205;-68
2024/02/01 10:33:48;;;;;;;4.40;1.92;;;16.90;55.00;;;;;;5053633;28;20190;-69
2024/02/01 10:36:23;;;;;;;6.03;1.90;;;16.90;55.10;;;;;;5052803;28;20270;-69
2024/02/01 10:38:50;;;;;;;4.28;1.65;;;16.90;55.20;;;;;;5052018;28;20710;-69
2024/02/01 10:41:17;;;;;;;5.18;1.80;;;16.90;55.10;;;;;;5051873;28;20178;-68
2024/02/01 10:43:44;;;;;;;6.78;2.10;;;16.80;55.10;;;;;;5051090;28;20176;-69
2024/02/01 10:46:12;;;;;;;6.10;2.00;;;16.80;55.20;;;;;;5052858;28;20604;-68
2024/02/01 10:49:03;;;;;;;4.15;1.85;;;16.80;55.20;;;;;;5052848;28;20306;-69
2024/02/01 10:51:29;;;;;;;4.55;1.65;;;16.80;55.30;;;;;;5051001;28;20218;-69
2024/02/01 10:53:55;;;;;;;2.72;1.77;;;16.80;55.30;;;;;;5052964;28;20213;-69
2024/02/01 10:56:29;;;;;;;4.03;1.70;;;16.80;55.30;;;;;;5052407;28;20322;-68
2024/02/01 10:58:55;;;;;;;3.90;2.08;;;16.80;55.30;;;;;;5052502;28;20189;-69
2024/02/01 11:01:24;;;;;;;6.53;2.25;;;16.80;55.40;;;;;;5052534;28;20209;-69
2024/02/01 11:03:56;;;;;;;5.95;2.00;;;16.70;55.30;;;;;;5051691;28;20668;-69
2024/02/01 11:06:23;;;;;;;5.60;2.17;;;16.70;56.10;;;;;;5051678;28;20598;-69
2024/02/01 11:08:51;;;;;;;4.90;1.95;;;16.70;55.50;;;;;;5052520;28;20215;-69
2024/02/01 11:11:36;;;;;;;4.90;2.08;;;16.70;55.50;;;;;;5051648;28;20171;-69
2024/02/01 11:14:21;;;;;;;5.07;1.92;;;16.70;55.50;;;;;;5052843;28;20232;-69
2024/02/01 11:16:50;;;;;;;3.45;2.13;;;16.70;55.50;;;;;;5052584;28;20178;-69
2024/02/01 11:19:23;;;;;;;4.35;1.92;;;16.70;55.40;;;;;;5051522;28;20171;-69
2024/02/01 11:22:11;;;;;;;5.70;2.00;;;16.80;55.50;;;;;;5052667;28;20270;-68
2024/02/01 11:24:37;;;;;;;6.38;2.10;;;16.80;55.50;;;;;;5051015;28;20202;-67
2024/02/01 11:27:21;;;;;;;5.88;2.33;;;16.80;55.40;;;;;;5050374;28;20250;-68
2024/02/01 11:29:51;;;;;;;3.97;1.90;;;16.70;56.10;;;;;;5050898;28;20219;-68
2024/02/01 11:32:21;;;;;;;5.00;1.95;;;16.70;55.50;;;;;;5052141;28;20518;-68
2024/02/01 11:34:50;;;;;;;5.35;2.45;;;16.70;55.50;;;;;;5052223;28;20182;-69
2024/02/01 11:37:24;;;;;;;4.45;1.98;;;16.80;55.50;;;;;;5052157;28;20307;-69
2024/02/01 11:39:49;;;;;;;4.68;2.10;;;16.70;55.50;;;;;;5051344;28;20195;-70
2024/02/01 11:42:15;;;;;;;5.00;2.00;;;16.70;55.50;;;;;;5052227;28;20254;-69
2024/02/01 11:44:41;;;;;;;4.85;2.28;;;16.70;55.50;;;;;;5052142;28;20236;-69
2024/02/01 11:47:07;;;;;;;6.03;2.00;;;16.80;55.40;;;;;;5051636;28;20183;-69
2024/02/01 11:49:36;;;;;;;6.63;2.10;;;16.70;55.50;;;;;;5051787;28;20218;-68
2024/02/01 11:52:15;;;;;;;5.38;2.03;;;16.70;55.50;;;;;;5052096;28;20537;-69
2024/02/01 11:54:52;;;;;;;6.50;1.92;;;16.70;55.50;;;;;;5049865;28;20262;-68
2024/02/01 11:57:19;;;;;;;6.70;2.20;;;16.80;55.40;;;;;;5051620;28;20233;-68
2024/02/01 11:59:45;;;;;;;6.32;2.72;;;16.80;55.30;;;;;;5052039;28;20175;-69
2024/02/01 12:02:10;;;;;;;4.32;1.90;;;16.90;55.30;;;;;;5051350;28;20171;-67
2024/02/01 12:04:45;;;;;;;6.40;2.05;;;16.90;55.20;;;;;;5051487;28;20187;-69
2024/02/01 12:07:14;;;;;;;5.45;1.95;;;16.90;55.10;;;;;;5051873;28;20178;-68
2024/02/01 12:09:40;;;;;;;6.30;2.35;;;16.90;55.80;;;;;;5050960;28;20219;-68
2024/02/01 12:12:06;;;;;;;7.90;2.60;;;16.90;55.10;;;;;;5050718;28;20244;-68
2024/02/01 12:14:38;;;;;;;5.65;2.05;;;16.90;55.10;;;;;;5051043;28;20183;-68
2024/02/01 12:17:04;;;;;;;8.43;2.47;;;17.00;55.10;;;;;;5051833;28;20183;-72
2024/02/01 12:19:37;;;;;;;5.88;2.05;;;17.00;55.00;;;;;;5051439;28;20270;-68
2024/02/01 12:22:13;;;;;;;3.83;2.05;;;17.10;55.00;;;;;;5051012;28;20174;-70
2024/02/01 12:24:39;;;;;;;7.00;2.13;;;17.10;55.00;;;;;;5055224;28;20198;-68
2024/02/01 12:27:11;;;;;;;6.82;2.50;;;17.10;55.00;;;;;;5055859;28;20186;-67
2024/02/01 12:29:37;;;;;;;4.93;2.63;;;17.10;54.90;;;;;;5054627;28;20221;-68
2024/02/01 12:32:03;;;;;;;4.80;2.15;;;17.10;54.90;;;;;;5055787;28;20171;-68
2024/02/01 12:34:28;;;;;;;6.45;2.47;;;17.10;55.50;;;;;;5055081;28;20179;-69
2024/02/01 12:36:54;;;;;;;6.60;2.67;;;17.10;55.00;;;;;;5055056;28;20179;-70
2024/02/01 12:39:21;;;;;;;8.10;2.17;;;17.00;55.10;;;;;;5055301;28;20551;-69
2024/02/01 12:41:46;;;;;;;6.05;1.92;;;17.00;55.30;;;;;;5055511;28;20179;-69
2024/02/01 12:44:15;;;;;;;6.43;2.20;;;16.90;55.40;;;;;;5053496;28;20186;-67
2024/02/01 12:46:44;;;;;;;5.65;2.65;;;16.90;55.40;;;;;;5055146;28;20182;-68
2024/02/01 12:49:12;;;;;;;7.72;2.55;;;16.90;55.60;;;;;;5055233;28;20210;-68
2024/02/01 12:51:42;;;;;;;5.85;2.20;;;16.80;55.40;;;;;;5054162;28;20257;-68
2024/02/01 12:54:08;;;;;;;6.50;2.20;;;16.80;55.40;;;;;;5055181;28;20183;-68
2024/02/01 12:56:35;;;;;;;9.90;2.65;;;16.80;55.40;;;;;;5054701;28;20227;-68
2024/02/01 12:59:02;;;;;;;7.75;2.33;;;16.80;55.40;;;;;;5053647;28;20631;-69
2024/02/01 13:01:37;;;;;;;6.93;2.10;;;16.80;55.40;;;;;;5052902;28;20639;-69
2024/02/01 13:04:02;;;;;;;5.55;2.10;;;16.80;55.40;;;;;;5053132;28;20186;-68
2024/02/01 13:06:28;;;;;;;5.53;1.95;;;16.70;55.40;;;;;;5053352;28;20171;-68
2024/02/01 13:08:53;;;;;;;4.88;2.00;;;16.80;55.40;;;;;;5054708;28;20752;-69
2024/02/01 13:11:31;;;;;;;5.53;2.20;;;16.70;55.30;;;;;;5053815;28;20294;-69
2024/02/01 13:13:57;;;;;;;6.93;2.22;;;16.70;55.30;;;;;;5054344;28;20262;-68
2024/02/01 13:16:24;;;;;;;5.50;1.98;;;16.80;55.30;;;;;;5054680;28;20201;-68
2024/02/01 13:18:50;;;;;;;3.83;1.92;;;16.80;55.20;;;;;;5053892;28;20175;-68
2024/02/01 13:21:16;;;;;;;8.10;2.53;;;16.80;55.20;;;;;;5054570;28;20525;-68
2024/02/01 13:23:42;;;;;;;6.07;2.20;;;16.90;55.20;;;;;;5054460;28;20256;-67
2024/02/01 13:26:10;;;;;;;7.57;2.30;;;16.90;55.10;;;;;;5053783;28;20629;-67
2024/02/01 13:28:35;;;;;;;6.57;2.10;;;16.90;55.00;;;;;;5054118;28;20377;-67
2024/02/01 13:31:01;;;;;;;4.60;1.75;;;17.00;55.00;;;;;;5054614;28;20187;-68
2024/02/01 13:33:26;;;;;;;5.10;2.35;;;17.00;55.00;;;;;;5052341;28;20171;-68
2024/02/01 13:35:52;;;;;;;5.88;2.33;;;17.00;55.00;;;;;;5053432;28;20241;-69
2024/02/01 13:38:17;;;;;;;5.57;2.38;;;17.00;55.00;;;;;;5054148;28;20178;-69
2024/02/01 13:40:43;;;;;;;7.72;2.58;;;17.00;55.30;;;;;;5053657;28;20172;-68
2024/02/01 13:43:10;;;;;;;11.00;2.78;;;17.10;55.10;;;;;;5053948;28;20517;-68
2024/02/01 13:45:36;;;;;;;5.60;1.90;;;17.10;55.00;;;;;;5054047;28;20187;-68
2024/02/01 13:48:01;;;;;;;5.47;2.20;;;17.10;55.10;;;;;;5053327;28;20210;-68
2024/02/01 13:50:27;;;;;;;7.50;2.30;;;17.10;55.00;;;;;;5053942;28;20183;-68